createdAt,value
2019-06-20T00:01:37.218Z,9.00
2019-06-20T00:04:04.610Z,8.00
2019-06-20T00:06:30.625Z,8.20
2019-06-20T00:08:56.634Z,8.27
2019-06-20T00:11:22.772Z,8.23
2019-06-20T00:13:48.783Z,7.50
2019-06-20T00:16:14.800Z,8.60
2019-06-20T00:18:40.830Z,8.30
2019-06-20T00:21:06.819Z,7.43
2019-06-20T00:23:32.868Z,8.90
2019-06-20T00:25:58.889Z,8.47
2019-06-20T00:28:24.899Z,8.53
2019-06-20T00:30:50.907Z,8.97
2019-06-20T00:33:16.881Z,7.87
2019-06-20T00:35:42.864Z,7.60
2019-06-20T00:38:09.069Z,6.93
2019-06-20T00:40:35.070Z,7.47
2019-06-20T00:43:16.373Z,7.47
2019-06-20T00:45:29.020Z,7.70
2019-06-20T00:47:55.052Z,7.03
2019-06-20T00:50:21.024Z,6.83
2019-06-20T00:52:47.030Z,7.00
2019-06-20T00:55:13.201Z,6.20
2019-06-20T00:57:39.446Z,6.47
2019-06-20T01:00:07.021Z,5.80
2019-06-20T01:02:33.023Z,5.63
2019-06-20T01:04:59.012Z,6.10
2019-06-20T01:07:25.011Z,5.67
2019-06-20T01:09:50.991Z,6.10
2019-06-20T01:12:16.985Z,5.13
2019-06-20T01:14:42.959Z,5.20
2019-06-20T01:17:08.967Z,5.37
2019-06-20T01:19:34.966Z,5.63
2019-06-20T01:22:00.936Z,5.40
2019-06-20T01:24:27.167Z,4.93
2019-06-20T01:26:53.178Z,4.97
2019-06-20T01:29:19.166Z,4.47
2019-06-20T01:31:47.064Z,5.00
2019-06-20T01:34:13.051Z,4.17
2019-06-20T01:36:39.044Z,5.00
2019-06-20T01:39:07.340Z,4.90
2019-06-20T01:41:33.643Z,4.57
2019-06-20T01:43:59.640Z,4.80
2019-06-20T01:46:27.025Z,5.50
2019-06-20T01:48:53.216Z,5.07
2019-06-20T01:51:19.216Z,5.27
2019-06-20T01:53:45.238Z,5.17
2019-06-20T01:56:11.276Z,5.47
2019-06-20T01:58:37.282Z,5.63
2019-06-20T02:01:03.573Z,5.20
2019-06-20T02:03:29.575Z,5.10
2019-06-20T02:05:55.563Z,5.17
2019-06-20T02:08:21.546Z,5.90
2019-06-20T02:10:47.676Z,5.17
2019-06-20T02:13:13.888Z,4.63
2019-06-20T02:15:40.243Z,4.60
2019-06-20T02:18:08.587Z,4.40
2019-06-20T02:20:49.790Z,5.30
2019-06-20T02:23:15.791Z,5.00
2019-06-20T02:25:41.775Z,4.10
2019-06-20T02:28:07.831Z,4.53
2019-06-20T02:30:33.946Z,4.37
2019-06-20T02:33:00.124Z,4.50
2019-06-20T02:35:26.225Z,4.13
2019-06-20T02:37:52.223Z,4.00
2019-06-20T02:40:18.315Z,4.30
2019-06-20T02:42:44.325Z,4.00
2019-06-20T02:45:10.645Z,3.83
2019-06-20T02:47:36.638Z,3.80
2019-06-20T02:50:04.178Z,4.90
2019-06-20T02:52:30.373Z,4.50
2019-06-20T02:54:56.371Z,4.50
2019-06-20T02:57:22.379Z,3.83
2019-06-20T02:59:48.376Z,4.10
2019-06-20T03:02:14.350Z,4.20
2019-06-20T03:04:40.371Z,4.53
2019-06-20T03:07:06.386Z,4.00
2019-06-20T03:09:32.379Z,4.13
2019-06-20T03:11:58.370Z,4.37
2019-06-20T03:14:24.366Z,4.27
2019-06-20T03:16:50.374Z,4.27
2019-06-20T03:19:16.490Z,5.73
2019-06-20T03:21:42.460Z,4.37
2019-06-20T03:24:08.451Z,4.40
2019-06-20T03:26:34.460Z,4.63
2019-06-20T03:29:01.631Z,4.40
2019-06-20T03:31:27.643Z,4.90
2019-06-20T03:33:53.621Z,4.00
2019-06-20T03:36:19.609Z,4.40
2019-06-20T03:38:45.615Z,4.77
2019-06-20T03:41:11.638Z,4.27
2019-06-20T03:43:40.276Z,4.80
2019-06-20T03:46:06.241Z,4.30
2019-06-20T03:48:32.229Z,4.40
2019-06-20T03:50:58.256Z,4.20
2019-06-20T03:53:24.238Z,4.60
2019-06-20T03:55:50.252Z,4.63
2019-06-20T03:58:16.292Z,4.37
2019-06-20T04:00:42.321Z,5.73
2019-06-20T04:03:08.324Z,4.80
2019-06-20T04:05:34.412Z,5.17
2019-06-20T04:08:00.391Z,4.60
2019-06-20T04:10:26.498Z,5.17
2019-06-20T04:12:52.468Z,4.87
2019-06-20T04:15:19.926Z,4.70
2019-06-20T04:17:47.990Z,4.53
2019-06-20T04:20:14.277Z,4.70
2019-06-20T04:22:40.338Z,5.27
2019-06-20T04:25:06.435Z,5.30
2019-06-20T04:27:32.451Z,5.03
2019-06-20T04:29:58.428Z,5.50
2019-06-20T04:32:24.514Z,4.90
2019-06-20T04:34:50.525Z,5.60
2019-06-20T04:37:16.533Z,5.10
2019-06-20T04:39:42.532Z,5.00
2019-06-20T04:42:12.923Z,5.30
2019-06-20T04:44:38.966Z,5.50
2019-06-20T04:47:12.032Z,5.07
2019-06-20T04:49:38.147Z,5.70
2019-06-20T04:52:04.261Z,4.90
2019-06-20T04:54:30.347Z,5.17
2019-06-20T04:56:56.351Z,4.70
2019-06-20T04:59:22.376Z,5.43
2019-06-20T05:01:48.364Z,5.50
2019-06-20T05:04:15.966Z,5.77
2019-06-20T05:06:45.724Z,5.00
2019-06-20T05:09:11.756Z,5.20
2019-06-20T05:11:37.822Z,5.93
2019-06-20T05:14:03.840Z,5.23
2019-06-20T05:16:30.013Z,5.10
2019-06-20T05:18:55.998Z,5.70
2019-06-20T05:21:22.560Z,5.47
2019-06-20T05:23:48.611Z,5.80
2019-06-20T05:26:14.651Z,6.13
2019-06-20T05:28:40.762Z,5.37
2019-06-20T05:31:06.779Z,5.90
2019-06-20T05:33:32.788Z,6.33
2019-06-20T05:35:58.986Z,5.70
2019-06-20T05:38:24.981Z,5.37
2019-06-20T05:40:50.996Z,5.23
2019-06-20T05:43:16.991Z,5.40
2019-06-20T05:45:46.156Z,5.30
2019-06-20T05:48:11.194Z,5.70
2019-06-20T05:50:38.965Z,6.07
2019-06-20T05:53:04.948Z,5.10
2019-06-20T05:55:30.966Z,6.27
2019-06-20T05:57:57.873Z,5.90
2019-06-20T06:00:24.170Z,5.63
2019-06-20T06:02:50.448Z,5.43
2019-06-20T06:05:16.692Z,5.87
2019-06-20T06:07:42.674Z,5.87
2019-06-20T06:10:10.489Z,6.00
2019-06-20T06:12:36.477Z,5.90
2019-06-20T06:15:06.424Z,6.30
2019-06-20T06:17:33.273Z,5.83
2019-06-20T06:19:59.300Z,5.97
2019-06-20T06:22:25.803Z,5.70
2019-06-20T06:24:51.894Z,5.50
2019-06-20T06:27:17.884Z,6.07
2019-06-20T06:29:43.891Z,5.90
2019-06-20T06:32:09.923Z,5.80
2019-06-20T06:34:37.271Z,6.20
2019-06-20T06:37:03.276Z,6.43
2019-06-20T06:39:29.318Z,6.03
2019-06-20T06:41:55.325Z,5.90
2019-06-20T06:44:21.550Z,5.80
2019-06-20T06:46:54.235Z,6.30
2019-06-20T06:49:15.461Z,6.00
2019-06-20T06:51:41.488Z,5.43
2019-06-20T06:54:07.815Z,6.20
2019-06-20T06:56:33.821Z,6.97
2019-06-20T06:58:59.991Z,6.47
2019-06-20T07:01:25.976Z,6.50
2019-06-20T07:03:52.313Z,6.30
2019-06-20T07:06:18.501Z,6.00
2019-06-20T07:08:44.506Z,6.53
2019-06-20T07:11:10.497Z,7.43
2019-06-20T07:13:36.660Z,6.70
2019-06-20T07:16:03.331Z,6.13
2019-06-20T07:18:29.331Z,6.40
2019-06-20T07:20:55.592Z,6.70
2019-06-20T07:23:21.615Z,6.20
2019-06-20T07:25:47.603Z,6.63
2019-06-20T07:28:13.594Z,7.00
2019-06-20T07:30:39.596Z,5.90
2019-06-20T07:33:05.616Z,6.20
2019-06-20T07:35:31.612Z,5.90
2019-06-20T07:37:58.041Z,5.93
2019-06-20T07:40:24.127Z,5.23
2019-06-20T07:42:50.112Z,5.03
2019-06-20T07:45:19.960Z,5.63
2019-06-20T07:47:45.973Z,6.23
2019-06-20T07:50:12.414Z,5.90
2019-06-20T07:52:38.728Z,5.43
2019-06-20T07:55:06.919Z,5.60
2019-06-20T07:57:33.113Z,6.00
2019-06-20T07:59:59.140Z,5.63
2019-06-20T08:02:26.597Z,5.87
2019-06-20T08:04:52.597Z,5.03
2019-06-20T08:07:18.617Z,5.30
2019-06-20T08:09:45.525Z,4.70
2019-06-20T08:12:11.746Z,5.20
2019-06-20T08:14:37.872Z,4.60
2019-06-20T08:17:03.910Z,4.90
2019-06-20T08:19:29.925Z,5.03
2019-06-20T08:21:56.228Z,5.53
2019-06-20T08:24:22.438Z,5.07
2019-06-20T08:26:48.509Z,4.70
2019-06-20T08:29:20.706Z,5.43
2019-06-20T08:31:42.516Z,5.00
2019-06-20T08:34:08.525Z,5.10
2019-06-20T08:36:35.211Z,5.10
2019-06-20T08:39:02.534Z,5.60
2019-06-20T08:41:28.945Z,5.80
2019-06-20T08:43:55.351Z,7.17
2019-06-20T08:46:22.719Z,5.37
2019-06-20T08:48:48.854Z,6.00
2019-06-20T08:51:14.952Z,5.60
2019-06-20T08:53:40.964Z,5.60
2019-06-20T08:56:06.990Z,7.23
2019-06-20T08:58:33.041Z,6.33
2019-06-20T09:01:01.350Z,5.80
2019-06-20T09:03:27.144Z,5.60
2019-06-20T09:05:54.906Z,5.53
2019-06-20T09:08:21.134Z,6.57
2019-06-20T09:10:47.123Z,6.33
2019-06-20T09:13:13.149Z,6.30
2019-06-20T09:15:39.427Z,6.90
2019-06-20T09:18:06.658Z,6.77
2019-06-20T09:20:32.945Z,6.30
2019-06-20T09:22:59.016Z,6.40
2019-06-20T09:25:25.059Z,6.10
2019-06-20T09:27:52.666Z,6.60
2019-06-20T09:30:19.614Z,6.20
2019-06-20T09:32:45.874Z,5.87
2019-06-20T09:35:14.104Z,6.40
2019-06-20T09:37:40.066Z,5.60
2019-06-20T09:40:07.483Z,5.70
2019-06-20T09:42:36.776Z,6.17
2019-06-20T09:45:02.938Z,5.90
2019-06-20T09:47:29.244Z,5.60
2019-06-20T09:49:57.185Z,5.47
2019-06-20T09:52:23.107Z,5.80
2019-06-20T09:54:50.170Z,5.63
2019-06-20T09:57:16.271Z,6.50
2019-06-20T09:59:56.276Z,5.57
2019-06-20T10:02:10.160Z,5.23
2019-06-20T10:04:36.220Z,5.43
2019-06-20T10:07:02.481Z,5.70
2019-06-20T10:09:28.590Z,6.93
2019-06-20T10:11:56.012Z,6.43
2019-06-20T10:14:22.719Z,6.50
2019-06-20T10:16:50.993Z,6.13
2019-06-20T10:19:16.769Z,6.03
2019-06-20T10:21:42.762Z,6.60
2019-06-20T10:24:08.847Z,6.90
2019-06-20T10:26:37.657Z,7.00
2019-06-20T10:29:03.693Z,6.87
2019-06-20T10:31:29.843Z,6.90
2019-06-20T10:33:56.921Z,7.30
2019-06-20T10:36:23.112Z,7.50
2019-06-20T10:38:50.312Z,8.00
2019-06-20T10:41:16.482Z,8.50
2019-06-20T10:43:43.024Z,9.20
2019-06-20T10:46:10.214Z,7.97
2019-06-20T10:48:36.160Z,9.00
2019-06-20T10:51:22.625Z,8.80
2019-06-20T10:53:49.273Z,7.80
2019-06-20T10:56:15.415Z,8.30
2019-06-20T10:58:42.095Z,8.40
2019-06-20T11:01:09.138Z,7.90
2019-06-20T11:03:35.700Z,7.60
2019-06-20T11:06:01.967Z,6.43
2019-06-20T11:08:27.995Z,6.43
2019-06-20T11:10:54.087Z,6.10
2019-06-20T11:13:20.173Z,6.73
2019-06-20T11:15:48.679Z,5.90
2019-06-20T11:18:16.070Z,6.80
2019-06-20T11:20:42.735Z,5.43
2019-06-20T11:23:09.049Z,5.00
2019-06-20T11:25:35.131Z,6.00
2019-06-20T11:28:01.146Z,6.00
2019-06-20T11:30:29.192Z,5.77
2019-06-20T11:32:56.358Z,5.40
2019-06-20T11:35:22.702Z,5.00
2019-06-20T11:37:48.745Z,4.10
2019-06-20T11:40:15.725Z,4.40
2019-06-20T11:42:42.238Z,4.20
2019-06-20T11:45:10.247Z,4.23
2019-06-20T11:47:36.660Z,4.10
2019-06-20T11:50:06.423Z,4.40
2019-06-20T11:52:40.024Z,6.43
2019-06-20T11:55:05.072Z,4.47
2019-06-20T11:57:33.605Z,4.80
2019-06-20T11:59:59.778Z,5.10
2019-06-20T12:02:28.588Z,4.37
2019-06-20T12:04:54.634Z,4.63
2019-06-20T12:07:20.752Z,4.80
2019-06-20T12:09:46.803Z,4.00
2019-06-20T12:12:12.942Z,4.60
2019-06-20T12:14:39.723Z,4.10
2019-06-20T12:17:07.188Z,4.40
2019-06-20T12:19:33.276Z,4.53
2019-06-20T12:21:59.359Z,4.07
2019-06-20T12:24:25.400Z,4.33
2019-06-20T12:26:51.572Z,4.17
2019-06-20T12:29:17.714Z,4.30
2019-06-20T12:31:45.925Z,4.30
2019-06-20T12:34:12.035Z,3.27
2019-06-20T12:36:39.615Z,3.70
2019-06-20T12:39:07.055Z,3.80
2019-06-20T12:41:33.123Z,3.83
2019-06-20T12:43:59.119Z,3.47
2019-06-20T12:46:25.088Z,3.33
2019-06-20T12:48:51.136Z,3.67
2019-06-20T12:51:17.136Z,3.47
2019-06-20T12:53:44.173Z,3.77
2019-06-20T12:56:10.241Z,3.50
2019-06-20T12:58:37.476Z,3.70
2019-06-20T13:01:04.226Z,3.53
2019-06-20T13:03:30.264Z,3.83
2019-06-20T13:05:56.256Z,4.70
2019-06-20T13:08:22.279Z,4.90
2019-06-20T13:10:48.366Z,4.53
2019-06-20T13:13:14.366Z,4.50
2019-06-20T13:15:40.663Z,5.47
2019-06-20T13:18:06.805Z,5.03
2019-06-20T13:20:32.865Z,4.47
2019-06-20T13:22:58.894Z,4.37
2019-06-20T13:25:24.960Z,4.17
2019-06-20T13:27:51.032Z,4.50
2019-06-20T13:30:18.249Z,4.23
2019-06-20T13:32:45.409Z,4.67
2019-06-20T13:35:13.170Z,5.00
2019-06-20T13:37:40.211Z,4.63
2019-06-20T13:40:10.616Z,4.77
2019-06-20T13:42:36.710Z,4.80
2019-06-20T13:45:08.229Z,4.80
2019-06-20T13:47:34.349Z,5.20
2019-06-20T13:50:00.376Z,3.90
2019-06-20T13:52:27.703Z,4.10
2019-06-20T13:54:53.743Z,13.43
2019-06-20T13:57:19.896Z,5.30
2019-06-20T13:59:45.980Z,4.03
2019-06-20T14:02:12.020Z,4.23
2019-06-20T14:04:38.166Z,4.70
2019-06-20T14:07:04.496Z,4.23
2019-06-20T14:09:30.616Z,4.00
2019-06-20T14:11:56.598Z,4.70
2019-06-20T14:14:22.681Z,4.30
2019-06-20T14:16:49.044Z,4.00
2019-06-20T14:19:15.015Z,4.13
2019-06-20T14:21:42.530Z,4.93
2019-06-20T14:24:09.947Z,4.30
2019-06-20T14:26:37.521Z,5.43
2019-06-20T14:29:03.852Z,5.40
2019-06-20T14:31:29.940Z,4.23
2019-06-20T14:33:55.968Z,4.93
2019-06-20T14:36:23.370Z,6.63
2019-06-20T14:38:49.562Z,4.87
2019-06-20T14:41:15.633Z,4.33
2019-06-20T14:43:42.970Z,4.17
2019-06-20T14:46:09.651Z,3.53
2019-06-20T14:48:36.689Z,3.50
2019-06-20T14:51:02.810Z,3.10
2019-06-20T14:53:28.830Z,3.70
2019-06-20T14:55:55.887Z,3.43
2019-06-20T14:58:21.918Z,3.17
2019-06-20T15:00:48.216Z,3.37
2019-06-20T15:03:14.231Z,3.43
2019-06-20T15:05:40.202Z,3.27
2019-06-20T15:08:06.184Z,3.43
2019-06-20T15:10:33.336Z,3.30
2019-06-20T15:12:59.325Z,2.90
2019-06-20T15:15:25.407Z,3.30
2019-06-20T15:17:53.590Z,2.80
2019-06-20T15:20:19.499Z,3.60
2019-06-20T15:22:47.011Z,3.60
2019-06-20T15:25:13.925Z,3.23
2019-06-20T15:27:39.961Z,4.00
2019-06-20T15:30:06.143Z,3.60
2019-06-20T15:32:32.129Z,3.40
2019-06-20T15:35:01.768Z,3.30
2019-06-20T15:37:27.396Z,3.50
2019-06-20T15:39:55.452Z,4.30
2019-06-20T15:42:22.489Z,4.10
2019-06-20T15:44:50.098Z,4.83
2019-06-20T15:47:16.516Z,3.60
2019-06-20T15:49:42.672Z,4.20
2019-06-20T15:52:08.807Z,4.40
2019-06-20T15:54:36.741Z,4.30
2019-06-20T15:57:02.921Z,3.80
2019-06-20T15:59:28.972Z,3.57
2019-06-20T16:01:56.901Z,4.87
2019-06-20T16:04:24.007Z,4.90
2019-06-20T16:06:50.145Z,3.60
2019-06-20T16:09:16.178Z,3.70
2019-06-20T16:11:42.604Z,3.20
2019-06-20T16:14:08.680Z,3.20
2019-06-20T16:16:34.659Z,4.00
2019-06-20T16:19:00.653Z,3.80
2019-06-20T16:21:26.821Z,3.50
2019-06-20T16:23:52.859Z,3.00
2019-06-20T16:26:18.960Z,3.10
2019-06-20T16:28:45.045Z,4.03
2019-06-20T16:31:25.883Z,3.90
2019-06-20T16:33:39.056Z,4.70
2019-06-20T16:36:05.464Z,6.00
2019-06-20T16:38:31.463Z,3.50
2019-06-20T16:40:57.518Z,3.60
2019-06-20T16:43:24.996Z,3.50
2019-06-20T16:45:54.144Z,3.30
2019-06-20T16:48:20.235Z,2.90
2019-06-20T16:50:46.383Z,3.63
2019-06-20T16:53:12.821Z,2.90
2019-06-20T16:55:39.368Z,2.90
2019-06-20T16:58:05.734Z,3.27
2019-06-20T17:00:33.981Z,3.13
2019-06-20T17:03:00.110Z,4.47
2019-06-20T17:05:26.075Z,3.00
2019-06-20T17:07:52.081Z,2.93
2019-06-20T17:10:18.704Z,2.90
2019-06-20T17:12:44.807Z,2.70
2019-06-20T17:15:12.013Z,3.20
2019-06-20T17:17:38.382Z,2.60
2019-06-20T17:20:08.042Z,2.53
2019-06-20T17:22:34.096Z,2.70
2019-06-20T17:25:00.221Z,2.80
2019-06-20T17:27:26.277Z,2.90
2019-06-20T17:29:52.269Z,3.40
2019-06-20T17:32:18.313Z,5.40
2019-06-20T17:34:44.316Z,3.13
2019-06-20T17:37:12.797Z,2.83
2019-06-20T17:39:38.947Z,5.60
2019-06-20T17:42:05.097Z,3.07
2019-06-20T17:44:31.222Z,4.40
2019-06-20T17:46:57.238Z,2.83
2019-06-20T17:49:23.263Z,2.93
2019-06-20T17:51:49.409Z,3.93
2019-06-20T17:54:17.468Z,3.63
2019-06-20T17:56:43.496Z,3.10
2019-06-20T17:59:09.597Z,3.10
2019-06-20T18:01:36.140Z,3.67
2019-06-20T18:04:13.404Z,3.40
2019-06-20T18:06:34.516Z,2.80
2019-06-20T18:09:00.790Z,2.60
2019-06-20T18:11:26.856Z,3.37
2019-06-20T18:13:52.981Z,5.50
2019-06-20T18:16:25.270Z,4.37
2019-06-20T18:18:49.537Z,5.03
2019-06-20T18:21:15.911Z,3.83
2019-06-20T18:23:42.021Z,3.27
2019-06-20T18:26:08.137Z,3.03
2019-06-20T18:28:34.215Z,2.90
2019-06-20T18:31:02.161Z,3.00
2019-06-20T18:33:28.212Z,2.77
2019-06-20T18:35:54.201Z,2.80
2019-06-20T18:38:20.184Z,3.77
2019-06-20T18:40:46.197Z,4.27
2019-06-20T18:43:12.298Z,2.50
2019-06-20T18:45:38.439Z,3.27
2019-06-20T18:48:04.634Z,4.63
2019-06-20T18:50:30.668Z,3.17
2019-06-20T18:52:57.957Z,3.20
2019-06-20T18:55:24.045Z,4.80
2019-06-20T18:57:50.077Z,3.23
2019-06-20T19:00:16.772Z,2.87
2019-06-20T19:02:42.871Z,4.90
2019-06-20T19:05:10.270Z,4.57
2019-06-20T19:07:36.256Z,4.77
2019-06-20T19:10:06.128Z,4.30
2019-06-20T19:12:32.354Z,4.70
2019-06-20T19:14:58.316Z,4.23
2019-06-20T19:17:24.342Z,3.60
2019-06-20T19:19:50.330Z,4.67
2019-06-20T19:22:16.333Z,6.05
2019-06-20T19:24:42.312Z,4.60
2019-06-20T19:27:08.336Z,4.93
2019-06-20T19:29:34.424Z,4.42
2019-06-20T19:32:00.470Z,4.92
2019-06-20T19:34:26.461Z,4.70
2019-06-20T19:36:52.472Z,3.93
2019-06-20T19:39:18.542Z,3.87
2019-06-20T19:41:44.506Z,4.13
2019-06-20T19:44:10.579Z,3.70
2019-06-20T19:46:36.921Z,4.97
2019-06-20T19:49:03.081Z,6.00
2019-06-20T19:51:29.120Z,4.10
2019-06-20T19:53:55.232Z,4.00
2019-06-20T19:56:21.334Z,4.43
2019-06-20T19:58:47.352Z,3.50
2019-06-20T20:01:13.426Z,4.53
2019-06-20T20:03:39.676Z,4.50
2019-06-20T20:06:06.030Z,3.70
2019-06-20T20:08:32.035Z,4.20
2019-06-20T20:10:58.051Z,4.50
2019-06-20T20:13:24.119Z,5.03
2019-06-20T20:15:50.269Z,5.00
2019-06-20T20:18:16.495Z,4.10
2019-06-20T20:20:47.258Z,5.70
2019-06-20T20:23:12.116Z,6.20
2019-06-20T20:25:38.605Z,9.50
2019-06-20T20:28:04.615Z,8.60
2019-06-20T20:30:30.714Z,8.30
2019-06-20T20:32:56.819Z,7.73
2019-06-20T20:35:35.001Z,7.20
2019-06-20T20:37:51.269Z,7.07
2019-06-20T20:40:18.435Z,8.53
2019-06-20T20:42:46.490Z,8.50
2019-06-20T20:45:12.903Z,7.07
2019-06-20T20:47:38.967Z,6.87
2019-06-20T20:50:06.322Z,6.97
2019-06-20T20:52:32.387Z,9.80
2019-06-20T20:54:58.593Z,8.27
2019-06-20T20:57:26.616Z,8.13
2019-06-20T20:59:52.989Z,8.93
2019-06-20T21:02:19.068Z,8.40
2019-06-20T21:04:45.094Z,6.73
2019-06-20T21:07:11.234Z,7.50
2019-06-20T21:09:39.247Z,8.00
2019-06-20T21:12:07.452Z,8.67
2019-06-20T21:14:33.513Z,7.10
2019-06-20T21:17:00.538Z,6.60
2019-06-20T21:19:26.532Z,7.40
2019-06-20T21:21:52.628Z,7.10
2019-06-20T21:24:18.914Z,6.87
2019-06-20T21:26:49.903Z,7.83
2019-06-20T21:29:13.884Z,7.35
2019-06-20T21:31:39.917Z,7.90
2019-06-20T21:34:05.899Z,7.90
2019-06-20T21:36:32.373Z,7.40
2019-06-20T21:39:00.713Z,7.57
2019-06-20T21:41:26.811Z,7.00
2019-06-20T21:43:52.802Z,7.20
2019-06-20T21:46:18.803Z,6.57
2019-06-20T21:48:45.219Z,8.00
2019-06-20T21:51:12.724Z,6.23
2019-06-20T21:53:38.808Z,6.20
2019-06-20T21:56:05.075Z,6.60
2019-06-20T21:58:31.217Z,6.57
2019-06-20T22:01:02.003Z,6.40
2019-06-20T22:03:28.090Z,6.10
2019-06-20T22:05:55.750Z,5.70
2019-06-20T22:08:22.206Z,5.90
2019-06-20T22:10:49.468Z,5.40
2019-06-20T22:13:15.692Z,6.20
2019-06-20T22:15:43.706Z,6.63
2019-06-20T22:18:09.865Z,5.87
2019-06-20T22:20:36.980Z,5.63
2019-06-20T22:23:03.448Z,6.50
2019-06-20T22:25:29.474Z,7.27
2019-06-20T22:27:55.479Z,6.23
2019-06-20T22:30:52.663Z,7.20
2019-06-20T22:33:18.730Z,6.37
2019-06-20T22:35:45.923Z,5.90
2019-06-20T22:38:14.517Z,7.10
2019-06-20T22:40:40.713Z,9.53
2019-06-20T22:43:10.536Z,7.30
2019-06-20T22:45:36.922Z,7.80
2019-06-20T22:48:04.012Z,6.10
2019-06-20T22:50:30.526Z,7.73
2019-06-20T22:52:56.697Z,6.00
2019-06-20T22:55:22.758Z,5.30
2019-06-20T22:57:48.777Z,6.60
2019-06-20T23:00:15.375Z,27.40
2019-06-20T23:02:41.640Z,5.97
2019-06-20T23:05:08.135Z,6.43
2019-06-20T23:07:34.215Z,9.90
2019-06-20T23:10:09.848Z,8.10
2019-06-20T23:12:28.113Z,6.37
2019-06-20T23:14:54.101Z,5.93
2019-06-20T23:17:20.172Z,7.77
2019-06-20T23:19:46.161Z,5.60
2019-06-20T23:22:15.962Z,6.97
2019-06-20T23:24:41.951Z,5.77
2019-06-20T23:27:07.963Z,6.40
2019-06-20T23:29:34.444Z,6.33
2019-06-20T23:32:00.920Z,6.03
2019-06-20T23:34:26.922Z,5.90
2019-06-20T23:36:53.416Z,5.57
2019-06-20T23:39:19.513Z,6.70
2019-06-20T23:41:45.531Z,5.70
2019-06-20T23:44:11.708Z,6.10
2019-06-20T23:46:37.748Z,6.10
2019-06-20T23:49:04.255Z,5.67
2019-06-20T23:51:32.158Z,5.90
2019-06-20T23:53:58.215Z,5.53
2019-06-20T23:56:24.223Z,5.50
2019-06-20T23:58:50.229Z,6.03
